sensor_id;sensor_type;location;lat;lon;timestamp;temperature;humidity
43995;DHT22;51687;52.160;5.298;2024-01-30T00:00:34;13.10;66.10
43995;DHT22;51687;52.160;5.298;2024-01-30T00:03:00;13.10;66.20
43995;DHT22;51687;52.160;5.298;2024-01-30T00:05:27;13.10;66.30
43995;DHT22;51687;52.160;5.298;2024-01-30T00:07:54;13.10;66.40
43995;DHT22;51687;52.160;5.298;2024-01-30T00:10:21;13.10;66.50
43995;DHT22;51687;52.160;5.298;2024-01-30T00:12:48;13.10;66.20
43995;DHT22;51687;52.160;5.298;2024-01-30T00:15:15;13.10;66.20
43995;DHT22;51687;52.160;5.298;2024-01-30T00:17:41;13.10;66.50
43995;DHT22;51687;52.160;5.298;2024-01-30T00:20:09;13.10;66.30
43995;DHT22;51687;52.160;5.298;2024-01-30T00:22:36;13.10;66.30
43995;DHT22;51687;52.160;5.298;2024-01-30T00:25:03;13.10;66.30
43995;DHT22;51687;52.160;5.298;2024-01-30T00:27:30;13.10;66.40
43995;DHT22;51687;52.160;5.298;2024-01-30T00:29:57;13.10;66.40
43995;DHT22;51687;52.160;5.298;2024-01-30T00:32:24;13.10;66.50
43995;DHT22;51687;52.160;5.298;2024-01-30T00:34:50;13.10;66.40
43995;DHT22;51687;52.160;5.298;2024-01-30T00:37:18;13.20;66.20
43995;DHT22;51687;52.160;5.298;2024-01-30T00:39:44;13.10;66.10
43995;DHT22;51687;52.160;5.298;2024-01-30T00:42:11;13.10;66.10
43995;DHT22;51687;52.160;5.298;2024-01-30T00:44:38;13.20;66.10
43995;DHT22;51687;52.160;5.298;2024-01-30T00:47:06;13.20;66.20
43995;DHT22;51687;52.160;5.298;2024-01-30T00:49:33;13.20;66.00
43995;DHT22;51687;52.160;5.298;2024-01-30T00:52:00;13.20;65.90
43995;DHT22;51687;52.160;5.298;2024-01-30T00:54:27;13.20;65.90
43995;DHT22;51687;52.160;5.298;2024-01-30T00:56:54;13.20;65.60
43995;DHT22;51687;52.160;5.298;2024-01-30T00:59:20;13.20;65.90
43995;DHT22;51687;52.160;5.298;2024-01-30T01:01:47;13.20;66.70
43995;DHT22;51687;52.160;5.298;2024-01-30T01:04:14;13.20;66.00
43995;DHT22;51687;52.160;5.298;2024-01-30T01:06:41;13.20;66.20
43995;DHT22;51687;52.160;5.298;2024-01-30T01:09:11;13.30;65.50
43995;DHT22;51687;52.160;5.298;2024-01-30T01:11:39;13.30;65.60
43995;DHT22;51687;52.160;5.298;2024-01-30T01:14:06;13.30;65.40
43995;DHT22;51687;52.160;5.298;2024-01-30T01:16:33;13.40;65.30
43995;DHT22;51687;52.160;5.298;2024-01-30T01:19:00;13.40;66.30
43995;DHT22;51687;52.160;5.298;2024-01-30T01:21:27;13.50;65.70
43995;DHT22;51687;52.160;5.298;2024-01-30T01:23:54;13.50;66.20
43995;DHT22;51687;52.160;5.298;2024-01-30T01:26:21;13.60;65.60
43995;DHT22;51687;52.160;5.298;2024-01-30T01:28:48;13.60;65.00
43995;DHT22;51687;52.160;5.298;2024-01-30T01:31:15;13.70;65.60
43995;DHT22;51687;52.160;5.298;2024-01-30T01:33:42;13.70;65.20
43995;DHT22;51687;52.160;5.298;2024-01-30T01:36:09;13.70;64.20
43995;DHT22;51687;52.160;5.298;2024-01-30T01:38:36;13.70;64.20
43995;DHT22;51687;52.160;5.298;2024-01-30T01:41:03;13.70;64.50
43995;DHT22;51687;52.160;5.298;2024-01-30T01:43:30;13.70;64.20
43995;DHT22;51687;52.160;5.298;2024-01-30T01:45:57;13.70;64.10
43995;DHT22;51687;52.160;5.298;2024-01-30T01:48:24;13.70;63.80
43995;DHT22;51687;52.160;5.298;2024-01-30T01:50:52;13.70;63.90
43995;DHT22;51687;52.160;5.298;2024-01-30T01:53:19;13.80;65.00
43995;DHT22;51687;52.160;5.298;2024-01-30T01:55:47;13.80;64.20
43995;DHT22;51687;52.160;5.298;2024-01-30T01:58:14;13.80;64.00
43995;DHT22;51687;52.160;5.298;2024-01-30T02:00:42;13.80;63.70
43995;DHT22;51687;52.160;5.298;2024-01-30T02:03:10;13.80;63.70
43995;DHT22;51687;52.160;5.298;2024-01-30T02:05:39;13.80;63.70
43995;DHT22;51687;52.160;5.298;2024-01-30T02:08:08;13.80;63.70
43995;DHT22;51687;52.160;5.298;2024-01-30T02:10:35;13.80;63.10
43995;DHT22;51687;52.160;5.298;2024-01-30T02:13:02;13.80;63.50
43995;DHT22;51687;52.160;5.298;2024-01-30T02:15:29;13.90;63.20
43995;DHT22;51687;52.160;5.298;2024-01-30T02:17:56;13.90;63.20
43995;DHT22;51687;52.160;5.298;2024-01-30T02:20:25;13.80;63.00
43995;DHT22;51687;52.160;5.298;2024-01-30T02:22:54;13.80;64.50
43995;DHT22;51687;52.160;5.298;2024-01-30T02:25:31;13.90;63.20
43995;DHT22;51687;52.160;5.298;2024-01-30T02:27:58;13.90;63.30
43995;DHT22;51687;52.160;5.298;2024-01-30T02:30:25;13.90;62.70
43995;DHT22;51687;52.160;5.298;2024-01-30T02:32:52;13.90;62.60
43995;DHT22;51687;52.160;5.298;2024-01-30T02:35:19;13.80;62.70
43995;DHT22;51687;52.160;5.298;2024-01-30T02:37:46;13.80;62.70
43995;DHT22;51687;52.160;5.298;2024-01-30T02:40:13;13.80;62.70
43995;DHT22;51687;52.160;5.298;2024-01-30T02:42:40;13.80;62.80
43995;DHT22;51687;52.160;5.298;2024-01-30T02:45:09;13.70;62.70
43995;DHT22;51687;52.160;5.298;2024-01-30T02:47:36;13.70;63.30
43995;DHT22;51687;52.160;5.298;2024-01-30T02:50:03;13.80;63.50
43995;DHT22;51687;52.160;5.298;2024-01-30T02:52:30;13.80;63.60
43995;DHT22;51687;52.160;5.298;2024-01-30T02:54:57;13.80;62.70
43995;DHT22;51687;52.160;5.298;2024-01-30T02:57:25;13.80;62.40
43995;DHT22;51687;52.160;5.298;2024-01-30T02:59:52;13.80;62.70
43995;DHT22;51687;52.160;5.298;2024-01-30T03:02:19;13.80;63.00
43995;DHT22;51687;52.160;5.298;2024-01-30T03:04:46;13.80;62.60
43995;DHT22;51687;52.160;5.298;2024-01-30T03:07:13;13.80;62.50
43995;DHT22;51687;52.160;5.298;2024-01-30T03:09:41;13.70;62.40
43995;DHT22;51687;52.160;5.298;2024-01-30T03:12:10;13.70;62.50
43995;DHT22;51687;52.160;5.298;2024-01-30T03:14:37;13.70;62.60
43995;DHT22;51687;52.160;5.298;2024-01-30T03:17:04;13.60;62.80
43995;DHT22;51687;52.160;5.298;2024-01-30T03:19:31;13.60;62.60
43995;DHT22;51687;52.160;5.298;2024-01-30T03:21:58;13.60;62.90
43995;DHT22;51687;52.160;5.298;2024-01-30T03:24:25;13.50;62.90
43995;DHT22;51687;52.160;5.298;2024-01-30T03:26:53;13.60;63.80
43995;DHT22;51687;52.160;5.298;2024-01-30T03:29:20;13.50;62.90
43995;DHT22;51687;52.160;5.298;2024-01-30T03:31:47;13.50;63.20
43995;DHT22;51687;52.160;5.298;2024-01-30T03:34:13;13.40;63.20
43995;DHT22;51687;52.160;5.298;2024-01-30T03:39:08;13.30;62.60
43995;DHT22;51687;52.160;5.298;2024-01-30T03:41:34;13.30;63.80
43995;DHT22;51687;52.160;5.298;2024-01-30T03:44:01;13.30;63.70
43995;DHT22;51687;52.160;5.298;2024-01-30T03:46:28;13.30;63.60
43995;DHT22;51687;52.160;5.298;2024-01-30T03:48:56;13.40;63.60
43995;DHT22;51687;52.160;5.298;2024-01-30T03:51:22;13.30;63.30
43995;DHT22;51687;52.160;5.298;2024-01-30T03:53:49;13.30;63.60
43995;DHT22;51687;52.160;5.298;2024-01-30T03:56:16;13.30;63.60
43995;DHT22;51687;52.160;5.298;2024-01-30T03:58:43;13.40;64.80
43995;DHT22;51687;52.160;5.298;2024-01-30T04:01:13;13.40;63.50
43995;DHT22;51687;52.160;5.298;2024-01-30T04:03:41;13.30;63.60
43995;DHT22;51687;52.160;5.298;2024-01-30T04:06:10;13.30;63.70
43995;DHT22;51687;52.160;5.298;2024-01-30T04:08:38;13.30;63.60
43995;DHT22;51687;52.160;5.298;2024-01-30T04:11:05;13.30;64.10
43995;DHT22;51687;52.160;5.298;2024-01-30T04:13:35;13.30;64.00
43995;DHT22;51687;52.160;5.298;2024-01-30T04:16:03;13.30;63.80
43995;DHT22;51687;52.160;5.298;2024-01-30T04:18:30;13.20;63.60
43995;DHT22;51687;52.160;5.298;2024-01-30T04:20:56;13.20;63.90
43995;DHT22;51687;52.160;5.298;2024-01-30T04:23:23;13.20;63.90
43995;DHT22;51687;52.160;5.298;2024-01-30T04:25:50;13.20;64.50
43995;DHT22;51687;52.160;5.298;2024-01-30T04:28:17;13.20;64.10
43995;DHT22;51687;52.160;5.298;2024-01-30T04:30:44;13.10;64.00
43995;DHT22;51687;52.160;5.298;2024-01-30T04:40:33;13.00;64.30
43995;DHT22;51687;52.160;5.298;2024-01-30T04:43:00;12.90;65.20
43995;DHT22;51687;52.160;5.298;2024-01-30T04:45:26;12.80;64.90
43995;DHT22;51687;52.160;5.298;2024-01-30T04:47:53;12.80;65.10
43995;DHT22;51687;52.160;5.298;2024-01-30T04:50:21;12.80;65.20
43995;DHT22;51687;52.160;5.298;2024-01-30T04:52:48;12.80;65.20
43995;DHT22;51687;52.160;5.298;2024-01-30T04:55:15;12.80;65.20
43995;DHT22;51687;52.160;5.298;2024-01-30T04:57:43;12.70;65.50
43995;DHT22;51687;52.160;5.298;2024-01-30T05:00:10;12.70;65.60
43995;DHT22;51687;52.160;5.298;2024-01-30T05:02:38;12.80;65.60
43995;DHT22;51687;52.160;5.298;2024-01-30T05:05:05;12.80;65.40
43995;DHT22;51687;52.160;5.298;2024-01-30T05:07:32;12.80;65.50
43995;DHT22;51687;52.160;5.298;2024-01-30T05:09:59;12.70;65.70
43995;DHT22;51687;52.160;5.298;2024-01-30T05:12:30;12.80;65.70
43995;DHT22;51687;52.160;5.298;2024-01-30T05:14:57;12.80;66.00
43995;DHT22;51687;52.160;5.298;2024-01-30T05:17:24;12.80;66.40
43995;DHT22;51687;52.160;5.298;2024-01-30T05:19:50;12.80;66.40
43995;DHT22;51687;52.160;5.298;2024-01-30T05:22:17;12.80;66.00
43995;DHT22;51687;52.160;5.298;2024-01-30T05:24:45;12.80;65.90
43995;DHT22;51687;52.160;5.298;2024-01-30T05:27:12;12.70;65.90
43995;DHT22;51687;52.160;5.298;2024-01-30T05:29:40;12.70;66.00
43995;DHT22;51687;52.160;5.298;2024-01-30T05:32:10;12.70;66.30
43995;DHT22;51687;52.160;5.298;2024-01-30T05:34:37;12.70;66.40
43995;DHT22;51687;52.160;5.298;2024-01-30T05:37:04;12.70;66.50
43995;DHT22;51687;52.160;5.298;2024-01-30T05:39:31;12.70;66.50
43995;DHT22;51687;52.160;5.298;2024-01-30T05:41:59;12.70;66.50
43995;DHT22;51687;52.160;5.298;2024-01-30T05:44:26;12.70;66.80
43995;DHT22;51687;52.160;5.298;2024-01-30T05:46:53;12.60;67.20
43995;DHT22;51687;52.160;5.298;2024-01-30T05:49:20;12.60;67.30
43995;DHT22;51687;52.160;5.298;2024-01-30T05:51:47;12.60;67.50
43995;DHT22;51687;52.160;5.298;2024-01-30T05:54:14;12.50;67.70
43995;DHT22;51687;52.160;5.298;2024-01-30T05:56:43;12.50;67.70
43995;DHT22;51687;52.160;5.298;2024-01-30T05:59:10;12.50;68.50
43995;DHT22;51687;52.160;5.298;2024-01-30T06:01:37;12.50;67.80
43995;DHT22;51687;52.160;5.298;2024-01-30T06:04:04;12.50;67.90
43995;DHT22;51687;52.160;5.298;2024-01-30T06:06:31;12.50;68.00
43995;DHT22;51687;52.160;5.298;2024-01-30T06:08:58;12.50;68.30
43995;DHT22;51687;52.160;5.298;2024-01-30T06:11:25;12.50;68.40
43995;DHT22;51687;52.160;5.298;2024-01-30T06:13:51;12.50;68.40
43995;DHT22;51687;52.160;5.298;2024-01-30T06:16:18;12.40;68.50
43995;DHT22;51687;52.160;5.298;2024-01-30T06:18:47;12.50;68.50
43995;DHT22;51687;52.160;5.298;2024-01-30T06:21:14;12.50;68.70
43995;DHT22;51687;52.160;5.298;2024-01-30T06:23:41;12.50;69.20
43995;DHT22;51687;52.160;5.298;2024-01-30T06:26:08;12.40;68.80
43995;DHT22;51687;52.160;5.298;2024-01-30T06:28:36;12.30;68.90
43995;DHT22;51687;52.160;5.298;2024-01-30T06:31:04;12.30;69.10
43995;DHT22;51687;52.160;5.298;2024-01-30T06:33:33;12.30;69.30
43995;DHT22;51687;52.160;5.298;2024-01-30T06:36:00;12.20;69.40
43995;DHT22;51687;52.160;5.298;2024-01-30T06:38:26;12.20;69.50
43995;DHT22;51687;52.160;5.298;2024-01-30T06:40:53;12.20;69.60
43995;DHT22;51687;52.160;5.298;2024-01-30T06:43:20;12.20;69.80
43995;DHT22;51687;52.160;5.298;2024-01-30T06:45:47;12.30;72.60
43995;DHT22;51687;52.160;5.298;2024-01-30T06:48:14;12.50;73.80
43995;DHT22;51687;52.160;5.298;2024-01-30T06:50:40;12.70;73.10
43995;DHT22;51687;52.160;5.298;2024-01-30T07:05:24;12.90;71.30
43995;DHT22;51687;52.160;5.298;2024-01-30T07:07:51;13.80;68.90
43995;DHT22;51687;52.160;5.298;2024-01-30T07:20:11;14.00;66.00
43995;DHT22;51687;52.160;5.298;2024-01-30T07:32:33;13.60;65.20
43995;DHT22;51687;52.160;5.298;2024-01-30T07:35:01;13.00;67.00
43995;DHT22;51687;52.160;5.298;2024-01-30T07:37:35;13.00;67.70
43995;DHT22;51687;52.160;5.298;2024-01-30T07:40:03;12.90;67.90
43995;DHT22;51687;52.160;5.298;2024-01-30T07:42:31;12.80;68.10
43995;DHT22;51687;52.160;5.298;2024-01-30T07:44:58;12.80;68.40
43995;DHT22;51687;52.160;5.298;2024-01-30T07:47:26;12.80;68.60
43995;DHT22;51687;52.160;5.298;2024-01-30T07:49:53;12.70;68.90
43995;DHT22;51687;52.160;5.298;2024-01-30T07:52:21;12.70;69.10
43995;DHT22;51687;52.160;5.298;2024-01-30T07:54:48;12.70;69.60
43995;DHT22;51687;52.160;5.298;2024-01-30T07:57:15;12.70;69.70
43995;DHT22;51687;52.160;5.298;2024-01-30T07:59:42;12.60;69.90
43995;DHT22;51687;52.160;5.298;2024-01-30T08:02:12;12.60;70.20
43995;DHT22;51687;52.160;5.298;2024-01-30T08:04:40;12.60;70.40
43995;DHT22;51687;52.160;5.298;2024-01-30T08:07:07;12.60;70.40
43995;DHT22;51687;52.160;5.298;2024-01-30T08:09:34;12.60;70.50
43995;DHT22;51687;52.160;5.298;2024-01-30T08:12:00;12.60;70.70
43995;DHT22;51687;52.160;5.298;2024-01-30T08:14:28;12.60;70.70
43995;DHT22;51687;52.160;5.298;2024-01-30T08:16:55;12.60;70.80
43995;DHT22;51687;52.160;5.298;2024-01-30T08:19:22;12.70;70.80
43995;DHT22;51687;52.160;5.298;2024-01-30T08:21:49;12.70;71.50
43995;DHT22;51687;52.160;5.298;2024-01-30T08:24:15;12.80;70.90
43995;DHT22;51687;52.160;5.298;2024-01-30T08:26:42;12.90;70.90
43995;DHT22;51687;52.160;5.298;2024-01-30T08:29:09;12.90;70.80
43995;DHT22;51687;52.160;5.298;2024-01-30T08:31:37;13.00;70.70
43995;DHT22;51687;52.160;5.298;2024-01-30T08:34:04;13.10;70.60
43995;DHT22;51687;52.160;5.298;2024-01-30T08:36:31;13.10;70.80
43995;DHT22;51687;52.160;5.298;2024-01-30T08:38:58;13.20;70.70
43995;DHT22;51687;52.160;5.298;2024-01-30T08:41:29;13.20;70.70
43995;DHT22;51687;52.160;5.298;2024-01-30T08:43:56;13.30;70.40
43995;DHT22;51687;52.160;5.298;2024-01-30T08:46:23;13.30;70.60
43995;DHT22;51687;52.160;5.298;2024-01-30T08:48:50;13.40;70.50
43995;DHT22;51687;52.160;5.298;2024-01-30T08:51:17;13.40;70.40
43995;DHT22;51687;52.160;5.298;2024-01-30T08:53:44;13.40;70.40
43995;DHT22;51687;52.160;5.298;2024-01-30T08:56:11;13.40;70.60
43995;DHT22;51687;52.160;5.298;2024-01-30T08:58:38;13.50;70.40
43995;DHT22;51687;52.160;5.298;2024-01-30T09:01:06;13.50;70.40
43995;DHT22;51687;52.160;5.298;2024-01-30T09:03:33;13.50;70.30
43995;DHT22;51687;52.160;5.298;2024-01-30T09:06:00;13.50;70.60
43995;DHT22;51687;52.160;5.298;2024-01-30T09:08:28;13.50;70.50
43995;DHT22;51687;52.160;5.298;2024-01-30T09:10:55;13.50;70.80
43995;DHT22;51687;52.160;5.298;2024-01-30T09:13:22;13.50;70.80
43995;DHT22;51687;52.160;5.298;2024-01-30T09:15:49;13.50;70.90
43995;DHT22;51687;52.160;5.298;2024-01-30T09:18:16;13.50;70.80
43995;DHT22;51687;52.160;5.298;2024-01-30T09:20:43;13.50;71.00
43995;DHT22;51687;52.160;5.298;2024-01-30T09:23:12;13.50;71.10
43995;DHT22;51687;52.160;5.298;2024-01-30T09:25:38;13.40;70.70
43995;DHT22;51687;52.160;5.298;2024-01-30T09:28:05;13.40;71.10
43995;DHT22;51687;52.160;5.298;2024-01-30T09:30:32;13.40;71.40
43995;DHT22;51687;52.160;5.298;2024-01-30T09:32:59;13.30;71.60
43995;DHT22;51687;52.160;5.298;2024-01-30T09:35:26;13.30;71.70
43995;DHT22;51687;52.160;5.298;2024-01-30T09:37:53;13.30;72.00
43995;DHT22;51687;52.160;5.298;2024-01-30T09:40:20;13.30;72.00
43995;DHT22;51687;52.160;5.298;2024-01-30T09:42:47;13.30;72.10
43995;DHT22;51687;52.160;5.298;2024-01-30T09:45:23;13.30;72.10
43995;DHT22;51687;52.160;5.298;2024-01-30T09:47:50;13.30;72.20
43995;DHT22;51687;52.160;5.298;2024-01-30T09:50:17;13.20;72.20
43995;DHT22;51687;52.160;5.298;2024-01-30T09:52:46;13.20;72.40
43995;DHT22;51687;52.160;5.298;2024-01-30T09:55:13;13.20;72.50
43995;DHT22;51687;52.160;5.298;2024-01-30T09:57:41;13.20;72.60
43995;DHT22;51687;52.160;5.298;2024-01-30T10:00:08;13.20;72.70
43995;DHT22;51687;52.160;5.298;2024-01-30T10:02:36;13.20;72.60
43995;DHT22;51687;52.160;5.298;2024-01-30T10:05:03;13.20;72.60
43995;DHT22;51687;52.160;5.298;2024-01-30T10:07:30;13.20;72.70
43995;DHT22;51687;52.160;5.298;2024-01-30T10:09:57;13.20;72.80
43995;DHT22;51687;52.160;5.298;2024-01-30T10:12:29;13.20;72.90
43995;DHT22;51687;52.160;5.298;2024-01-30T10:14:56;13.20;73.10
43995;DHT22;51687;52.160;5.298;2024-01-30T10:17:25;13.20;73.00
43995;DHT22;51687;52.160;5.298;2024-01-30T10:19:59;13.20;73.10
43995;DHT22;51687;52.160;5.298;2024-01-30T10:22:28;13.20;73.00
43995;DHT22;51687;52.160;5.298;2024-01-30T10:24:56;13.20;73.00
43995;DHT22;51687;52.160;5.298;2024-01-30T10:27:26;13.20;73.10
43995;DHT22;51687;52.160;5.298;2024-01-30T10:29:54;13.20;73.30
43995;DHT22;51687;52.160;5.298;2024-01-30T10:32:22;13.20;73.20
43995;DHT22;51687;52.160;5.298;2024-01-30T10:34:48;13.20;73.10
43995;DHT22;51687;52.160;5.298;2024-01-30T10:37:16;13.20;73.00
43995;DHT22;51687;52.160;5.298;2024-01-30T10:39:45;13.30;72.80
43995;DHT22;51687;52.160;5.298;2024-01-30T10:42:17;13.30;72.60
43995;DHT22;51687;52.160;5.298;2024-01-30T10:44:57;13.20;72.40
43995;DHT22;51687;52.160;5.298;2024-01-30T10:47:28;13.30;72.60
43995;DHT22;51687;52.160;5.298;2024-01-30T10:49:56;13.20;72.60
43995;DHT22;51687;52.160;5.298;2024-01-30T10:52:24;13.20;72.80
43995;DHT22;51687;52.160;5.298;2024-01-30T10:54:55;13.30;72.90
43995;DHT22;51687;52.160;5.298;2024-01-30T10:57:26;13.20;72.90
43995;DHT22;51687;52.160;5.298;2024-01-30T10:59:59;13.20;72.70
43995;DHT22;51687;52.160;5.298;2024-01-30T11:02:28;13.20;72.60
43995;DHT22;51687;52.160;5.298;2024-01-30T11:04:58;13.20;72.70
43995;DHT22;51687;52.160;5.298;2024-01-30T11:07:30;13.20;72.50
43995;DHT22;51687;52.160;5.298;2024-01-30T11:10:02;13.20;72.10
43995;DHT22;51687;52.160;5.298;2024-01-30T11:12:31;13.20;72.00
43995;DHT22;51687;52.160;5.298;2024-01-30T11:15:06;13.20;72.00
43995;DHT22;51687;52.160;5.298;2024-01-30T11:20:22;13.30;71.00
43995;DHT22;51687;52.160;5.298;2024-01-30T11:22:52;13.30;70.00
43995;DHT22;51687;52.160;5.298;2024-01-30T11:25:23;13.30;69.70
43995;DHT22;51687;52.160;5.298;2024-01-30T11:27:51;13.30;69.60
43995;DHT22;51687;52.160;5.298;2024-01-30T11:30:29;13.30;69.30
43995;DHT22;51687;52.160;5.298;2024-01-30T11:32:59;13.30;69.10
43995;DHT22;51687;52.160;5.298;2024-01-30T11:35:31;13.30;68.10
43995;DHT22;51687;52.160;5.298;2024-01-30T11:37:59;13.30;68.30
43995;DHT22;51687;52.160;5.298;2024-01-30T11:40:28;13.20;67.60
43995;DHT22;51687;52.160;5.298;2024-01-30T11:42:56;13.20;67.60
43995;DHT22;51687;52.160;5.298;2024-01-30T11:45:24;13.20;67.50
43995;DHT22;51687;52.160;5.298;2024-01-30T11:47:51;13.10;67.00
43995;DHT22;51687;52.160;5.298;2024-01-30T11:50:20;13.10;66.60
43995;DHT22;51687;52.160;5.298;2024-01-30T11:52:47;13.00;66.30
43995;DHT22;51687;52.160;5.298;2024-01-30T11:55:15;13.00;66.40
43995;DHT22;51687;52.160;5.298;2024-01-30T11:57:42;12.90;66.50
43995;DHT22;51687;52.160;5.298;2024-01-30T12:00:15;13.00;66.80
43995;DHT22;51687;52.160;5.298;2024-01-30T12:02:43;13.00;66.80
43995;DHT22;51687;52.160;5.298;2024-01-30T12:05:10;13.00;66.80
43995;DHT22;51687;52.160;5.298;2024-01-30T12:07:37;13.10;66.50
43995;DHT22;51687;52.160;5.298;2024-01-30T12:10:04;13.00;66.40
43995;DHT22;51687;52.160;5.298;2024-01-30T12:12:32;13.00;66.70
43995;DHT22;51687;52.160;5.298;2024-01-30T12:14:59;12.90;66.50
43995;DHT22;51687;52.160;5.298;2024-01-30T12:17:33;12.90;67.10
43995;DHT22;51687;52.160;5.298;2024-01-30T12:20:13;13.00;67.00
43995;DHT22;51687;52.160;5.298;2024-01-30T12:22:43;12.90;67.20
43995;DHT22;51687;52.160;5.298;2024-01-30T12:25:17;12.90;66.60
43995;DHT22;51687;52.160;5.298;2024-01-30T12:27:46;12.70;66.30
43995;DHT22;51687;52.160;5.298;2024-01-30T12:30:18;12.70;66.60
43995;DHT22;51687;52.160;5.298;2024-01-30T12:32:47;12.60;66.30
43995;DHT22;51687;52.160;5.298;2024-01-30T12:35:15;12.50;66.70
43995;DHT22;51687;52.160;5.298;2024-01-30T12:37:46;12.50;66.70
43995;DHT22;51687;52.160;5.298;2024-01-30T12:40:14;12.40;67.10
43995;DHT22;51687;52.160;5.298;2024-01-30T12:42:46;12.40;67.20
43995;DHT22;51687;52.160;5.298;2024-01-30T12:45:16;12.40;67.40
43995;DHT22;51687;52.160;5.298;2024-01-30T12:47:47;12.30;67.60
43995;DHT22;51687;52.160;5.298;2024-01-30T12:50:14;12.30;67.40
43995;DHT22;51687;52.160;5.298;2024-01-30T12:52:43;12.30;67.50
43995;DHT22;51687;52.160;5.298;2024-01-30T12:55:15;12.20;68.00
43995;DHT22;51687;52.160;5.298;2024-01-30T12:57:42;12.30;67.70
43995;DHT22;51687;52.160;5.298;2024-01-30T13:00:09;12.30;67.20
43995;DHT22;51687;52.160;5.298;2024-01-30T13:02:37;12.30;67.10
43995;DHT22;51687;52.160;5.298;2024-01-30T13:05:04;12.30;67.20
43995;DHT22;51687;52.160;5.298;2024-01-30T13:07:31;12.30;67.10
43995;DHT22;51687;52.160;5.298;2024-01-30T13:09:58;12.30;67.10
43995;DHT22;51687;52.160;5.298;2024-01-30T13:12:30;12.30;67.40
43995;DHT22;51687;52.160;5.298;2024-01-30T13:14:59;12.30;67.20
43995;DHT22;51687;52.160;5.298;2024-01-30T13:17:27;12.20;67.30
43995;DHT22;51687;52.160;5.298;2024-01-30T13:19:55;12.20;67.80
43995;DHT22;51687;52.160;5.298;2024-01-30T13:22:28;12.20;68.30
43995;DHT22;51687;52.160;5.298;2024-01-30T13:24:55;12.20;67.90
43995;DHT22;51687;52.160;5.298;2024-01-30T13:27:21;12.20;68.00
43995;DHT22;51687;52.160;5.298;2024-01-30T13:29:48;12.30;68.40
43995;DHT22;51687;52.160;5.298;2024-01-30T13:32:15;12.30;68.30
43995;DHT22;51687;52.160;5.298;2024-01-30T13:34:42;12.20;68.40
43995;DHT22;51687;52.160;5.298;2024-01-30T13:37:09;12.20;68.60
43995;DHT22;51687;52.160;5.298;2024-01-30T13:39:37;12.20;68.90
43995;DHT22;51687;52.160;5.298;2024-01-30T13:42:07;12.20;69.10
43995;DHT22;51687;52.160;5.298;2024-01-30T13:44:35;12.20;69.20
43995;DHT22;51687;52.160;5.298;2024-01-30T13:47:03;12.20;69.60
43995;DHT22;51687;52.160;5.298;2024-01-30T13:49:30;12.20;69.70
43995;DHT22;51687;52.160;5.298;2024-01-30T13:51:57;12.10;69.90
43995;DHT22;51687;52.160;5.298;2024-01-30T13:54:24;12.10;70.10
43995;DHT22;51687;52.160;5.298;2024-01-30T13:56:51;12.00;70.90
43995;DHT22;51687;52.160;5.298;2024-01-30T13:59:18;12.10;70.60
43995;DHT22;51687;52.160;5.298;2024-01-30T14:01:51;12.10;70.70
43995;DHT22;51687;52.160;5.298;2024-01-30T14:04:18;12.10;70.70
43995;DHT22;51687;52.160;5.298;2024-01-30T14:06:46;12.00;70.90
43995;DHT22;51687;52.160;5.298;2024-01-30T14:09:22;12.10;71.00
43995;DHT22;51687;52.160;5.298;2024-01-30T14:14:16;11.90;71.40
43995;DHT22;51687;52.160;5.298;2024-01-30T14:16:43;11.90;72.30
43995;DHT22;51687;52.160;5.298;2024-01-30T14:19:10;11.90;72.50
43995;DHT22;51687;52.160;5.298;2024-01-30T14:21:37;11.90;72.70
43995;DHT22;51687;52.160;5.298;2024-01-30T14:24:06;11.80;72.80
43995;DHT22;51687;52.160;5.298;2024-01-30T14:26:33;11.90;73.30
43995;DHT22;51687;52.160;5.298;2024-01-30T14:28:59;11.90;73.40
43995;DHT22;51687;52.160;5.298;2024-01-30T14:31:26;11.90;73.40
43995;DHT22;51687;52.160;5.298;2024-01-30T14:33:53;11.90;73.50
43995;DHT22;51687;52.160;5.298;2024-01-30T14:36:21;11.90;73.40
43995;DHT22;51687;52.160;5.298;2024-01-30T14:41:15;11.90;73.60
43995;DHT22;51687;52.160;5.298;2024-01-30T14:43:42;11.90;73.70
43995;DHT22;51687;52.160;5.298;2024-01-30T14:46:09;11.90;73.80
43995;DHT22;51687;52.160;5.298;2024-01-30T14:48:36;11.90;73.90
43995;DHT22;51687;52.160;5.298;2024-01-30T14:51:03;11.90;74.10
43995;DHT22;51687;52.160;5.298;2024-01-30T14:53:30;11.90;74.30
43995;DHT22;51687;52.160;5.298;2024-01-30T14:55:56;11.90;74.70
43995;DHT22;51687;52.160;5.298;2024-01-30T14:58:23;11.90;74.50
43995;DHT22;51687;52.160;5.298;2024-01-30T15:00:51;11.80;74.50
43995;DHT22;51687;52.160;5.298;2024-01-30T15:03:18;11.80;74.60
43995;DHT22;51687;52.160;5.298;2024-01-30T15:05:47;11.90;74.60
43995;DHT22;51687;52.160;5.298;2024-01-30T15:08:14;11.80;74.70
43995;DHT22;51687;52.160;5.298;2024-01-30T15:10:41;11.80;74.80
43995;DHT22;51687;52.160;5.298;2024-01-30T15:13:08;11.90;74.90
43995;DHT22;51687;52.160;5.298;2024-01-30T15:15:35;11.90;74.80
43995;DHT22;51687;52.160;5.298;2024-01-30T15:18:03;11.90;74.80
43995;DHT22;51687;52.160;5.298;2024-01-30T15:20:30;12.00;74.50
43995;DHT22;51687;52.160;5.298;2024-01-30T15:22:58;11.90;74.60
43995;DHT22;51687;52.160;5.298;2024-01-30T15:25:24;12.00;74.90
43995;DHT22;51687;52.160;5.298;2024-01-30T15:27:51;12.00;74.80
43995;DHT22;51687;52.160;5.298;2024-01-30T15:30:18;12.00;74.80
43995;DHT22;51687;52.160;5.298;2024-01-30T15:32:46;12.00;74.70
43995;DHT22;51687;52.160;5.298;2024-01-30T15:35:13;12.00;74.50
43995;DHT22;51687;52.160;5.298;2024-01-30T15:37:40;12.00;74.70
43995;DHT22;51687;52.160;5.298;2024-01-30T15:40:07;12.00;74.90
43995;DHT22;51687;52.160;5.298;2024-01-30T15:42:35;12.00;74.80
43995;DHT22;51687;52.160;5.298;2024-01-30T15:45:02;12.10;74.50
43995;DHT22;51687;52.160;5.298;2024-01-30T15:47:29;12.10;74.50
43995;DHT22;51687;52.160;5.298;2024-01-30T15:49:56;12.10;74.30
43995;DHT22;51687;52.160;5.298;2024-01-30T15:52:23;12.10;74.50
43995;DHT22;51687;52.160;5.298;2024-01-30T15:54:50;12.10;74.50
43995;DHT22;51687;52.160;5.298;2024-01-30T15:57:17;12.00;74.20
43995;DHT22;51687;52.160;5.298;2024-01-30T15:59:44;12.00;74.40
43995;DHT22;51687;52.160;5.298;2024-01-30T16:02:11;12.00;74.60
43995;DHT22;51687;52.160;5.298;2024-01-30T16:04:38;12.00;74.60
43995;DHT22;51687;52.160;5.298;2024-01-30T16:07:05;12.00;74.80
43995;DHT22;51687;52.160;5.298;2024-01-30T16:09:32;12.00;74.90
43995;DHT22;51687;52.160;5.298;2024-01-30T16:11:59;12.00;74.90
43995;DHT22;51687;52.160;5.298;2024-01-30T16:14:26;12.00;74.60
43995;DHT22;51687;52.160;5.298;2024-01-30T16:16:52;11.90;74.60
43995;DHT22;51687;52.160;5.298;2024-01-30T16:19:20;11.90;74.90
43995;DHT22;51687;52.160;5.298;2024-01-30T16:21:47;11.90;75.10